sensor_id;sensor_type;location;lat;lon;timestamp;pressure;altitude;pressure_sealevel;temperature;humidity
5814;BME280;2933;52.302;8.134;2023-11-21T00:03:21;77232.66;;;-148.04;100.00
5814;BME280;2933;52.302;8.134;2023-11-21T00:08:24;77220.72;;;-148.04;100.00
5814;BME280;2933;52.302;8.134;2023-11-21T00:13:27;77210.78;;;-148.04;100.00
5814;BME280;2933;52.302;8.134;2023-11-21T00:18:29;77188.91;;;-148.04;100.00
5814;BME280;2933;52.302;8.134;2023-11-21T00:23:31;77186.94;;;-148.04;100.00
5814;BME280;2933;52.302;8.134;2023-11-21T00:28:34;77178.97;;;-148.04;100.00
5814;BME280;2933;52.302;8.134;2023-11-21T00:33:35;77163.06;;;-148.04;100.00
5814;BME280;2933;52.302;8.134;2023-11-21T00:38:37;77159.09;;;-148.04;100.00
5814;BME280;2933;52.302;8.134;2023-11-21T00:43:41;77145.16;;;-148.04;100.00
5814;BME280;2933;52.302;8.134;2023-11-21T00:48:43;77137.22;;;-148.04;100.00
5814;BME280;2933;52.302;8.134;2023-11-21T00:53:44;77135.22;;;-148.04;100.00
5814;BME280;2933;52.302;8.134;2023-11-21T00:58:48;77127.28;;;-148.04;100.00
5814;BME280;2933;52.302;8.134;2023-11-21T01:03:52;77125.28;;;-148.04;100.00
5814;BME280;2933;52.302;8.134;2023-11-21T01:08:54;77107.41;;;-148.04;100.00
5814;BME280;2933;52.302;8.134;2023-11-21T01:13:57;77093.47;;;-148.04;100.00
5814;BME280;2933;52.302;8.134;2023-11-21T01:19:00;77089.50;;;-148.04;100.00
5814;BME280;2933;52.302;8.134;2023-11-21T01:24:02;77083.53;;;-148.04;100.00
5814;BME280;2933;52.302;8.134;2023-11-21T01:29:07;77067.63;;;-148.04;100.00
5814;BME280;2933;52.302;8.134;2023-11-21T01:34:08;77049.75;;;-148.04;100.00
5814;BME280;2933;52.302;8.134;2023-11-21T01:39:10;77059.69;;;-148.04;100.00
5814;BME280;2933;52.302;8.134;2023-11-21T01:44:16;77059.69;;;-148.04;100.00
5814;BME280;2933;52.302;8.134;2023-11-21T01:49:19;77055.69;;;-148.04;100.00
5814;BME280;2933;52.302;8.134;2023-11-21T01:54:21;77063.66;;;-148.04;100.00
5814;BME280;2933;52.302;8.134;2023-11-21T01:59:25;77055.69;;;-148.04;100.00
5814;BME280;2933;52.302;8.134;2023-11-21T02:04:27;77065.66;;;-148.04;100.00
5814;BME280;2933;52.302;8.134;2023-11-21T02:09:29;77075.59;;;-148.04;100.00
5814;BME280;2933;52.302;8.134;2023-11-21T02:14:33;77087.50;;;-148.04;100.00
5814;BME280;2933;52.302;8.134;2023-11-21T02:19:34;77079.56;;;-148.04;100.00
5814;BME280;2933;52.302;8.134;2023-11-21T02:24:41;77087.50;;;-148.04;100.00
5814;BME280;2933;52.302;8.134;2023-11-21T02:29:43;77097.47;;;-148.04;100.00
5814;BME280;2933;52.302;8.134;2023-11-21T02:34:45;77095.47;;;-148.04;100.00
5814;BME280;2933;52.302;8.134;2023-11-21T02:39:48;77087.50;;;-148.04;100.00
5814;BME280;2933;52.302;8.134;2023-11-21T02:44:49;77095.47;;;-148.04;100.00
5814;BME280;2933;52.302;8.134;2023-11-21T02:49:51;77087.50;;;-148.04;100.00
5814;BME280;2933;52.302;8.134;2023-11-21T02:54:55;77095.47;;;-148.04;100.00
5814;BME280;2933;52.302;8.134;2023-11-21T02:59:56;77095.47;;;-148.04;100.00
5814;BME280;2933;52.302;8.134;2023-11-21T03:04:58;77077.56;;;-148.04;100.00
5814;BME280;2933;52.302;8.134;2023-11-21T03:10:01;77093.47;;;-148.04;100.00
5814;BME280;2933;52.302;8.134;2023-11-21T03:15:05;77095.47;;;-148.04;100.00
5814;BME280;2933;52.302;8.134;2023-11-21T03:20:07;77095.47;;;-148.04;100.00
5814;BME280;2933;52.302;8.134;2023-11-21T03:25:13;77095.47;;;-148.04;100.00
5814;BME280;2933;52.302;8.134;2023-11-21T03:30:15;77103.41;;;-148.04;100.00
5814;BME280;2933;52.302;8.134;2023-11-21T03:35:17;77119.31;;;-148.04;100.00
5814;BME280;2933;52.302;8.134;2023-11-21T03:40:22;77119.31;;;-148.04;100.00
5814;BME280;2933;52.302;8.134;2023-11-21T03:45:24;77119.31;;;-148.04;100.00
5814;BME280;2933;52.302;8.134;2023-11-21T03:50:25;77113.34;;;-148.04;100.00
5814;BME280;2933;52.302;8.134;2023-11-21T03:55:28;77113.34;;;-148.04;100.00
5814;BME280;2933;52.302;8.134;2023-11-21T04:00:31;77119.31;;;-148.04;100.00
5814;BME280;2933;52.302;8.134;2023-11-21T04:05:33;77125.28;;;-148.04;100.00
5814;BME280;2933;52.302;8.134;2023-11-21T04:10:36;77143.19;;;-148.04;100.00
5814;BME280;2933;52.302;8.134;2023-11-21T04:15:39;77149.16;;;-148.04;100.00
5814;BME280;2933;52.302;8.134;2023-11-21T04:20:41;77137.22;;;-148.04;100.00
5814;BME280;2933;52.302;8.134;2023-11-21T04:25:44;77149.16;;;-148.04;100.00
5814;BME280;2933;52.302;8.134;2023-11-21T04:30:45;77143.19;;;-148.04;100.00
5814;BME280;2933;52.302;8.134;2023-11-21T04:35:47;77155.13;;;-148.04;100.00
5814;BME280;2933;52.302;8.134;2023-11-21T04:40:50;77153.13;;;-148.04;100.00
5814;BME280;2933;52.302;8.134;2023-11-21T04:45:52;77151.13;;;-148.04;100.00
5814;BME280;2933;52.302;8.134;2023-11-21T04:50:54;77151.13;;;-148.04;100.00
5814;BME280;2933;52.302;8.134;2023-11-21T04:55:57;77155.13;;;-148.04;100.00
5814;BME280;2933;52.302;8.134;2023-11-21T05:00:59;77161.06;;;-148.04;100.00
5814;BME280;2933;52.302;8.134;2023-11-21T05:06:01;77169.03;;;-148.04;100.00
5814;BME280;2933;52.302;8.134;2023-11-21T05:11:04;77171.03;;;-148.04;100.00
5814;BME280;2933;52.302;8.134;2023-11-21T05:16:08;77167.03;;;-148.04;100.00
5814;BME280;2933;52.302;8.134;2023-11-21T05:21:09;77161.06;;;-148.04;100.00
5814;BME280;2933;52.302;8.134;2023-11-21T05:26:12;77161.06;;;-148.04;100.00
5814;BME280;2933;52.302;8.134;2023-11-21T05:31:14;77165.06;;;-148.04;100.00
5814;BME280;2933;52.302;8.134;2023-11-21T05:36:15;77186.94;;;-148.04;100.00
5814;BME280;2933;52.302;8.134;2023-11-21T05:41:18;77186.94;;;-148.04;100.00
5814;BME280;2933;52.302;8.134;2023-11-21T05:46:20;77202.84;;;-148.04;100.00
5814;BME280;2933;52.302;8.134;2023-11-21T05:51:21;77204.81;;;-148.04;100.00
5814;BME280;2933;52.302;8.134;2023-11-21T05:56:26;77218.75;;;-148.04;100.00
5814;BME280;2933;52.302;8.134;2023-11-21T06:01:28;77230.66;;;-148.04;100.00
5814;BME280;2933;52.302;8.134;2023-11-21T06:06:29;77224.69;;;-148.04;100.00
5814;BME280;2933;52.302;8.134;2023-11-21T06:11:32;77232.66;;;-148.04;100.00
5814;BME280;2933;52.302;8.134;2023-11-21T06:16:34;77230.66;;;-148.04;100.00
5814;BME280;2933;52.302;8.134;2023-11-21T06:21:36;77242.59;;;-148.04;100.00
5814;BME280;2933;52.302;8.134;2023-11-21T06:26:39;77250.56;;;-148.04;100.00
5814;BME280;2933;52.302;8.134;2023-11-21T06:31:41;77260.50;;;-148.04;100.00
5814;BME280;2933;52.302;8.134;2023-11-21T06:36:44;77274.41;;;-148.04;100.00
5814;BME280;2933;52.302;8.134;2023-11-21T06:41:47;77274.41;;;-148.04;100.00
5814;BME280;2933;52.302;8.134;2023-11-21T06:46:48;77278.38;;;-148.04;100.00
5814;BME280;2933;52.302;8.134;2023-11-21T06:51:50;77286.34;;;-148.04;100.00
5814;BME280;2933;52.302;8.134;2023-11-21T06:56:53;77284.34;;;-148.04;100.00
5814;BME280;2933;52.302;8.134;2023-11-21T07:01:56;77290.31;;;-148.04;100.00
5814;BME280;2933;52.302;8.134;2023-11-21T07:06:58;77294.28;;;-148.04;100.00
5814;BME280;2933;52.302;8.134;2023-11-21T07:12:01;77290.31;;;-148.04;100.00
5814;BME280;2933;52.302;8.134;2023-11-21T07:17:04;77296.28;;;-148.04;100.00
5814;BME280;2933;52.302;8.134;2023-11-21T07:22:07;77300.25;;;-148.04;100.00
5814;BME280;2933;52.302;8.134;2023-11-21T07:27:10;77306.22;;;-148.04;100.00
5814;BME280;2933;52.302;8.134;2023-11-21T07:32:11;77314.19;;;-148.04;100.00
5814;BME280;2933;52.302;8.134;2023-11-21T07:37:13;77318.16;;;-148.04;100.00
5814;BME280;2933;52.302;8.134;2023-11-21T07:42:16;77318.16;;;-148.04;100.00
5814;BME280;2933;52.302;8.134;2023-11-21T07:47:18;77322.13;;;-148.04;100.00
5814;BME280;2933;52.302;8.134;2023-11-21T07:52:20;77322.13;;;-148.04;100.00
5814;BME280;2933;52.302;8.134;2023-11-21T07:57:23;77332.06;;;-148.04;100.00
5814;BME280;2933;52.302;8.134;2023-11-21T08:02:24;77330.09;;;-148.04;100.00
5814;BME280;2933;52.302;8.134;2023-11-21T08:07:27;77328.09;;;-148.04;100.00
5814;BME280;2933;52.302;8.134;2023-11-21T08:12:30;77344.00;;;-148.04;100.00
5814;BME280;2933;52.302;8.134;2023-11-21T08:17:32;77349.97;;;-148.04;100.00
5814;BME280;2933;52.302;8.134;2023-11-21T08:22:33;77353.94;;;-148.04;100.00
5814;BME280;2933;52.302;8.134;2023-11-21T08:27:36;77369.84;;;-148.04;100.00
5814;BME280;2933;52.302;8.134;2023-11-21T08:32:39;77369.84;;;-148.04;100.00
5814;BME280;2933;52.302;8.134;2023-11-21T08:37:40;77373.81;;;-148.04;100.00
5814;BME280;2933;52.302;8.134;2023-11-21T08:42:43;77371.84;;;-148.04;100.00
5814;BME280;2933;52.302;8.134;2023-11-21T08:47:45;77373.81;;;-148.04;100.00
5814;BME280;2933;52.302;8.134;2023-11-21T08:52:47;77377.81;;;-148.04;100.00
5814;BME280;2933;52.302;8.134;2023-11-21T08:57:50;77381.78;;;-148.04;100.00
5814;BME280;2933;52.302;8.134;2023-11-21T09:02:52;77385.75;;;-148.04;100.00
5814;BME280;2933;52.302;8.134;2023-11-21T09:07:54;77403.66;;;-148.04;100.00
5814;BME280;2933;52.302;8.134;2023-11-21T09:12:56;77411.59;;;-148.04;100.00
5814;BME280;2933;52.302;8.134;2023-11-21T09:17:59;77421.53;;;-148.04;100.00
5814;BME280;2933;52.302;8.134;2023-11-21T09:23:02;77439.44;;;-148.04;100.00
5814;BME280;2933;52.302;8.134;2023-11-21T09:28:05;77459.31;;;-148.04;100.00
5814;BME280;2933;52.302;8.134;2023-11-21T09:33:09;77465.28;;;-148.04;100.00
5814;BME280;2933;52.302;8.134;2023-11-21T09:38:11;77475.22;;;-148.04;100.00
5814;BME280;2933;52.302;8.134;2023-11-21T09:43:16;77475.22;;;-148.04;100.00
5814;BME280;2933;52.302;8.134;2023-11-21T09:48:19;77495.13;;;-148.04;100.00
5814;BME280;2933;52.302;8.134;2023-11-21T09:53:22;77495.13;;;-148.04;100.00
5814;BME280;2933;52.302;8.134;2023-11-21T09:58:27;77497.09;;;-148.04;100.00
5814;BME280;2933;52.302;8.134;2023-11-21T10:03:28;77505.06;;;-148.04;100.00
5814;BME280;2933;52.302;8.134;2023-11-21T10:08:30;77489.16;;;-148.04;100.00
5814;BME280;2933;52.302;8.134;2023-11-21T10:13:35;77495.13;;;-148.04;100.00
5814;BME280;2933;52.302;8.134;2023-11-21T10:18:38;77493.13;;;-148.04;100.00
5814;BME280;2933;52.302;8.134;2023-11-21T10:23:40;77485.19;;;-148.04;100.00
5814;BME280;2933;52.302;8.134;2023-11-21T10:29:03;77511.03;;;-148.04;100.00
5814;BME280;2933;52.302;8.134;2023-11-21T10:34:14;77542.84;;;-148.04;100.00
5814;BME280;2933;52.302;8.134;2023-11-21T10:39:16;77532.91;;;-148.04;100.00
5814;BME280;2933;52.302;8.134;2023-11-21T10:44:20;77552.78;;;-148.04;100.00
5814;BME280;2933;52.302;8.134;2023-11-21T10:49:25;77560.75;;;-148.04;100.00
5814;BME280;2933;52.302;8.134;2023-11-21T10:54:27;77558.75;;;-148.04;100.00
5814;BME280;2933;52.302;8.134;2023-11-21T10:59:30;77556.75;;;-148.04;100.00
5814;BME280;2933;52.302;8.134;2023-11-21T11:04:33;77552.78;;;-148.04;100.00
5814;BME280;2933;52.302;8.134;2023-11-21T11:09:38;77554.78;;;-148.04;100.00
5814;BME280;2933;52.302;8.134;2023-11-21T11:14:42;77548.81;;;-148.04;100.00
5814;BME280;2933;52.302;8.134;2023-11-21T11:19:45;77560.75;;;-148.04;100.00
5814;BME280;2933;52.302;8.134;2023-11-21T11:25:03;77564.72;;;-148.04;100.00
5814;BME280;2933;52.302;8.134;2023-11-21T11:30:23;77562.72;;;-148.04;100.00
5814;BME280;2933;52.302;8.134;2023-11-21T11:35:34;77568.69;;;-148.04;100.00
5814;BME280;2933;52.302;8.134;2023-11-21T11:40:40;77580.63;;;-148.04;100.00
5814;BME280;2933;52.302;8.134;2023-11-21T11:45:43;77600.50;;;-148.04;100.00
5814;BME280;2933;52.302;8.134;2023-11-21T11:51:04;77612.44;;;-148.04;100.00
5814;BME280;2933;52.302;8.134;2023-11-21T11:56:30;77626.34;;;-148.04;100.00
5814;BME280;2933;52.302;8.134;2023-11-21T12:01:35;77620.38;;;-148.04;100.00
5814;BME280;2933;52.302;8.134;2023-11-21T12:06:37;77598.53;;;-148.04;100.00
5814;BME280;2933;52.302;8.134;2023-11-21T12:11:41;77592.56;;;-148.04;100.00
5814;BME280;2933;52.302;8.134;2023-11-21T12:16:45;77598.53;;;-148.04;100.00
5814;BME280;2933;52.302;8.134;2023-11-21T12:21:47;77602.50;;;-148.04;100.00
5814;BME280;2933;52.302;8.134;2023-11-21T12:26:49;77592.56;;;-148.04;100.00
5814;BME280;2933;52.302;8.134;2023-11-21T12:31:52;77584.59;;;-148.04;100.00
5814;BME280;2933;52.302;8.134;2023-11-21T12:36:53;77600.50;;;-148.04;100.00
5814;BME280;2933;52.302;8.134;2023-11-21T12:41:55;77608.47;;;-148.04;100.00
5814;BME280;2933;52.302;8.134;2023-11-21T12:46:59;77624.38;;;-148.04;100.00
5814;BME280;2933;52.302;8.134;2023-11-21T12:52:01;77620.38;;;-148.04;100.00
5814;BME280;2933;52.302;8.134;2023-11-21T12:57:04;77622.38;;;-148.04;100.00
5814;BME280;2933;52.302;8.134;2023-11-21T13:02:12;77618.41;;;-148.04;100.00
5814;BME280;2933;52.302;8.134;2023-11-21T13:07:15;77616.41;;;-148.04;100.00
5814;BME280;2933;52.302;8.134;2023-11-21T13:12:17;77618.41;;;-148.04;100.00
5814;BME280;2933;52.302;8.134;2023-11-21T13:17:26;77628.34;;;-148.04;100.00
5814;BME280;2933;52.302;8.134;2023-11-21T13:22:28;77652.22;;;-148.04;100.00
5814;BME280;2933;52.302;8.134;2023-11-21T13:27:29;77674.09;;;-148.04;100.00
5814;BME280;2933;52.302;8.134;2023-11-21T13:32:34;77688.00;;;-148.04;100.00
5814;BME280;2933;52.302;8.134;2023-11-21T13:37:35;77703.91;;;-148.04;100.00
5814;BME280;2933;52.302;8.134;2023-11-21T13:42:37;77688.00;;;-148.04;100.00
5814;BME280;2933;52.302;8.134;2023-11-21T13:47:40;77693.97;;;-148.04;100.00
5814;BME280;2933;52.302;8.134;2023-11-21T13:52:41;77703.91;;;-148.04;100.00
5814;BME280;2933;52.302;8.134;2023-11-21T13:57:43;77695.97;;;-148.04;100.00
5814;BME280;2933;52.302;8.134;2023-11-21T14:02:48;77707.88;;;-148.04;100.00
5814;BME280;2933;52.302;8.134;2023-11-21T14:07:51;77717.81;;;-148.04;100.00
5814;BME280;2933;52.302;8.134;2023-11-21T14:12:53;77721.81;;;-148.04;100.00
5814;BME280;2933;52.302;8.134;2023-11-21T14:17:56;77723.78;;;-148.04;100.00
5814;BME280;2933;52.302;8.134;2023-11-21T14:22:57;77755.59;;;-148.04;100.00
5814;BME280;2933;52.302;8.134;2023-11-21T14:28:00;77751.63;;;-148.04;100.00
5814;BME280;2933;52.302;8.134;2023-11-21T14:33:06;77767.53;;;-148.04;100.00
5814;BME280;2933;52.302;8.134;2023-11-21T14:38:08;77769.53;;;-148.04;100.00
5814;BME280;2933;52.302;8.134;2023-11-21T14:43:10;77787.44;;;-148.04;100.00
5814;BME280;2933;52.302;8.134;2023-11-21T14:48:14;77793.41;;;-148.04;100.00
5814;BME280;2933;52.302;8.134;2023-11-21T14:53:17;77799.34;;;-148.04;100.00
5814;BME280;2933;52.302;8.134;2023-11-21T14:58:38;77811.28;;;-148.04;100.00
5814;BME280;2933;52.302;8.134;2023-11-21T15:03:41;77823.22;;;-148.04;100.00
5814;BME280;2933;52.302;8.134;2023-11-21T15:08:51;77837.13;;;-148.04;100.00
5814;BME280;2933;52.302;8.134;2023-11-21T15:14:22;77857.03;;;-148.04;100.00
5814;BME280;2933;52.302;8.134;2023-11-21T15:19:27;77853.06;;;-148.04;100.00
5814;BME280;2933;52.302;8.134;2023-11-21T15:24:31;77857.03;;;-148.04;100.00
5814;BME280;2933;52.302;8.134;2023-11-21T15:29:32;77861.00;;;-148.04;100.00
5814;BME280;2933;52.302;8.134;2023-11-21T15:34:36;77868.97;;;-148.04;100.00
5814;BME280;2933;52.302;8.134;2023-11-21T15:39:39;77866.97;;;-148.04;100.00
5814;BME280;2933;52.302;8.134;2023-11-21T15:44:41;77882.88;;;-148.04;100.00
5814;BME280;2933;52.302;8.134;2023-11-21T15:49:43;77872.94;;;-148.04;100.00
5814;BME280;2933;52.302;8.134;2023-11-21T15:54:46;77886.84;;;-148.04;100.00
5814;BME280;2933;52.302;8.134;2023-11-21T15:59:50;77890.84;;;-148.04;100.00
5814;BME280;2933;52.302;8.134;2023-11-21T16:04:55;77892.81;;;-148.04;100.00
5814;BME280;2933;52.302;8.134;2023-11-21T16:09:56;77906.75;;;-148.04;100.00
5814;BME280;2933;52.302;8.134;2023-11-21T16:14:58;77910.72;;;-148.04;100.00
5814;BME280;2933;52.302;8.134;2023-11-21T16:20:06;77922.66;;;-148.04;100.00
5814;BME280;2933;52.302;8.134;2023-11-21T16:25:10;77950.50;;;-148.04;100.00
5814;BME280;2933;52.302;8.134;2023-11-21T16:30:14;77960.44;;;-148.04;100.00
5814;BME280;2933;52.302;8.134;2023-11-21T16:35:16;77964.41;;;-148.04;100.00
5814;BME280;2933;52.302;8.134;2023-11-21T16:40:18;77974.34;;;-148.04;100.00
5814;BME280;2933;52.302;8.134;2023-11-21T16:45:20;77996.22;;;-148.04;100.00
5814;BME280;2933;52.302;8.134;2023-11-21T16:50:24;77994.25;;;-148.04;100.00
5814;BME280;2933;52.302;8.134;2023-11-21T16:55:26;78028.06;;;-148.04;100.00
5814;BME280;2933;52.302;8.134;2023-11-21T17:00:27;78012.16;;;-148.04;100.00
5814;BME280;2933;52.302;8.134;2023-11-21T17:05:30;78036.00;;;-148.04;100.00
5814;BME280;2933;52.302;8.134;2023-11-21T17:10:32;78026.06;;;-148.04;100.00
5814;BME280;2933;52.302;8.134;2023-11-21T17:15:35;78038.00;;;-148.04;100.00
5814;BME280;2933;52.302;8.134;2023-11-21T17:20:38;78053.91;;;-148.04;100.00
5814;BME280;2933;52.302;8.134;2023-11-21T17:25:39;78061.84;;;-148.04;100.00
5814;BME280;2933;52.302;8.134;2023-11-21T17:30:41;78077.78;;;-148.04;100.00
5814;BME280;2933;52.302;8.134;2023-11-21T17:35:44;78077.78;;;-148.04;100.00
5814;BME280;2933;52.302;8.134;2023-11-21T17:40:46;78071.81;;;-148.04;100.00
5814;BME280;2933;52.302;8.134;2023-11-21T17:45:47;78079.75;;;-148.04;100.00
5814;BME280;2933;52.302;8.134;2023-11-21T17:50:51;78091.69;;;-148.04;100.00
5814;BME280;2933;52.302;8.134;2023-11-21T17:55:52;78089.69;;;-148.04;100.00
5814;BME280;2933;52.302;8.134;2023-11-21T18:00:54;78091.69;;;-148.04;100.00
5814;BME280;2933;52.302;8.134;2023-11-21T18:05:57;78117.53;;;-148.04;100.00
5814;BME280;2933;52.302;8.134;2023-11-21T18:10:58;78121.53;;;-148.04;100.00
5814;BME280;2933;52.302;8.134;2023-11-21T18:16:01;78143.41;;;-148.04;100.00
5814;BME280;2933;52.302;8.134;2023-11-21T18:21:04;78141.41;;;-148.04;100.00
5814;BME280;2933;52.302;8.134;2023-11-21T18:26:07;78149.38;;;-148.04;100.00
5814;BME280;2933;52.302;8.134;2023-11-21T18:31:11;78169.25;;;-148.04;100.00
5814;BME280;2933;52.302;8.134;2023-11-21T18:36:16;78189.13;;;-148.04;100.00
5814;BME280;2933;52.302;8.134;2023-11-21T18:41:21;78201.06;;;-148.04;100.00
5814;BME280;2933;52.302;8.134;2023-11-21T18:46:23;78201.06;;;-148.04;100.00
5814;BME280;2933;52.302;8.134;2023-11-21T18:51:26;78211.00;;;-148.04;100.00
5814;BME280;2933;52.302;8.134;2023-11-21T18:56:27;78222.94;;;-148.04;100.00
5814;BME280;2933;52.302;8.134;2023-11-21T19:01:31;78222.94;;;-148.04;100.00
5814;BME280;2933;52.302;8.134;2023-11-21T19:06:34;78238.84;;;-148.04;100.00
5814;BME280;2933;52.302;8.134;2023-11-21T19:11:36;78238.84;;;-148.04;100.00
5814;BME280;2933;52.302;8.134;2023-11-21T19:16:37;78244.81;;;-148.04;100.00
5814;BME280;2933;52.302;8.134;2023-11-21T19:21:40;78264.72;;;-148.04;100.00
5814;BME280;2933;52.302;8.134;2023-11-21T19:26:42;78262.72;;;-148.04;100.00
5814;BME280;2933;52.302;8.134;2023-11-21T19:31:44;78272.66;;;-148.04;100.00
5814;BME280;2933;52.302;8.134;2023-11-21T19:36:47;78282.63;;;-148.04;100.00
5814;BME280;2933;52.302;8.134;2023-11-21T19:41:49;78274.66;;;-148.04;100.00
5814;BME280;2933;52.302;8.134;2023-11-21T19:46:51;78278.63;;;-148.04;100.00
5814;BME280;2933;52.302;8.134;2023-11-21T19:51:54;78302.50;;;-148.04;100.00
5814;BME280;2933;52.302;8.134;2023-11-21T19:56:56;78296.53;;;-148.04;100.00
5814;BME280;2933;52.302;8.134;2023-11-21T20:01:57;78310.47;;;-148.04;100.00
5814;BME280;2933;52.302;8.134;2023-11-21T20:07:00;78320.41;;;-148.04;100.00
5814;BME280;2933;52.302;8.134;2023-11-21T20:12:03;78350.22;;;-148.04;100.00
5814;BME280;2933;52.302;8.134;2023-11-21T20:17:04;78374.09;;;-148.04;100.00
5814;BME280;2933;52.302;8.134;2023-11-21T20:22:07;78366.13;;;-148.04;100.00
5814;BME280;2933;52.302;8.134;2023-11-21T20:27:09;78352.22;;;-148.04;100.00
5814;BME280;2933;52.302;8.134;2023-11-21T20:32:11;78364.16;;;-148.04;100.00
5814;BME280;2933;52.302;8.134;2023-11-21T20:37:13;78376.09;;;-148.04;100.00
5814;BME280;2933;52.302;8.134;2023-11-21T20:42:15;78374.09;;;-148.04;100.00
5814;BME280;2933;52.302;8.134;2023-11-21T20:47:17;78395.97;;;-148.04;100.00
5814;BME280;2933;52.302;8.134;2023-11-21T20:52:20;78380.06;;;-148.04;100.00
5814;BME280;2933;52.302;8.134;2023-11-21T20:57:22;78390.00;;;-148.04;100.00
5814;BME280;2933;52.302;8.134;2023-11-21T21:02:23;78388.03;;;-148.04;100.00
5814;BME280;2933;52.302;8.134;2023-11-21T21:07:26;78384.03;;;-148.04;100.00
5814;BME280;2933;52.302;8.134;2023-11-21T21:12:29;78384.03;;;-148.04;100.00
5814;BME280;2933;52.302;8.134;2023-11-21T21:17:31;78407.91;;;-148.04;100.00
5814;BME280;2933;52.302;8.134;2023-11-21T21:22:33;78397.97;;;-148.04;100.00
5814;BME280;2933;52.302;8.134;2023-11-21T21:27:35;78382.06;;;-148.04;100.00
5814;BME280;2933;52.302;8.134;2023-11-21T21:32:37;78409.91;;;-148.04;100.00
5814;BME280;2933;52.302;8.134;2023-11-21T21:37:40;78395.97;;;-148.04;100.00
5814;BME280;2933;52.302;8.134;2023-11-21T21:42:42;78433.75;;;-148.04;100.00
5814;BME280;2933;52.302;8.134;2023-11-21T21:47:43;78455.63;;;-148.04;100.00
5814;BME280;2933;52.302;8.134;2023-11-21T21:52:46;78443.72;;;-148.04;100.00
5814;BME280;2933;52.302;8.134;2023-11-21T21:57:48;78445.69;;;-148.04;100.00
5814;BME280;2933;52.302;8.134;2023-11-21T22:02:49;78439.72;;;-148.04;100.00
5814;BME280;2933;52.302;8.134;2023-11-21T22:07:52;78473.53;;;-148.04;100.00
5814;BME280;2933;52.302;8.134;2023-11-21T22:12:54;78479.50;;;-148.04;100.00
5814;BME280;2933;52.302;8.134;2023-11-21T22:17:55;78485.47;;;-148.04;100.00
5814;BME280;2933;52.302;8.134;2023-11-21T22:22:59;78509.34;;;-148.04;100.00
5814;BME280;2933;52.302;8.134;2023-11-21T22:28:01;78499.41;;;-148.04;100.00
5814;BME280;2933;52.302;8.134;2023-11-21T22:33:03;78503.38;;;-148.04;100.00
5814;BME280;2933;52.302;8.134;2023-11-21T22:38:05;78523.25;;;-148.04;100.00
5814;BME280;2933;52.302;8.134;2023-11-21T22:43:07;78525.25;;;-148.04;100.00
5814;BME280;2933;52.302;8.134;2023-11-21T22:48:09;78527.25;;;-148.04;100.00
5814;BME280;2933;52.302;8.134;2023-11-21T22:53:12;78527.25;;;-148.04;100.00
5814;BME280;2933;52.302;8.134;2023-11-21T22:58:13;78539.19;;;-148.04;100.00
5814;BME280;2933;52.302;8.134;2023-11-21T23:03:15;78545.16;;;-148.04;100.00
5814;BME280;2933;52.302;8.134;2023-11-21T23:08:18;78539.19;;;-148.04;100.00
5814;BME280;2933;52.302;8.134;2023-11-21T23:13:20;78557.06;;;-148.04;100.00
5814;BME280;2933;52.302;8.134;2023-11-21T23:18:22;78543.16;;;-148.04;100.00
5814;BME280;2933;52.302;8.134;2023-11-21T23:23:29;78592.88;;;-148.04;100.00
5814;BME280;2933;52.302;8.134;2023-11-21T23:28:31;78582.94;;;-148.04;100.00
5814;BME280;2933;52.302;8.134;2023-11-21T23:33:32;78614.75;;;-148.04;100.00
5814;BME280;2933;52.302;8.134;2023-11-21T23:38:35;78624.69;;;-148.04;100.00
5814;BME280;2933;52.302;8.134;2023-11-21T23:43:40;78646.59;;;-148.04;100.00
5814;BME280;2933;52.302;8.134;2023-11-21T23:48:42;78642.59;;;-148.04;100.00
5814;BME280;2933;52.302;8.134;2023-11-21T23:53:45;78642.59;;;-148.04;100.00
5814;BME280;2933;52.302;8.134;2023-11-21T23:58:46;78682.38;;;-148.04;100.00
